createdAt,value
2023-05-16T00:01:56.100Z,97885.66
2023-05-16T00:31:59.115Z,97897.09
2023-05-16T01:02:02.757Z,97889.38
2023-05-16T01:32:06.138Z,97886.72
2023-05-16T02:02:09.128Z,97891.66
2023-05-16T02:32:12.230Z,97893.59
2023-05-16T03:02:15.214Z,97903.88
2023-05-16T03:32:18.147Z,97918.16
2023-05-16T04:02:21.168Z,97939.53
2023-05-16T04:32:24.263Z,97962.25
2023-05-16T05:02:27.377Z,97990.97
2023-05-16T05:32:30.560Z,98025.91
2023-05-16T06:02:33.746Z,98078.06
2023-05-16T06:32:36.823Z,98130.66
2023-05-16T07:02:40.010Z,98159.38
2023-05-16T07:32:43.120Z,98194.69
2023-05-16T08:02:46.251Z,98212.41
2023-05-16T08:32:49.314Z,98239.63
2023-05-16T09:02:53.929Z,98245.47
2023-05-16T09:32:46.234Z,98241.13
2023-05-16T09:32:59.077Z,98242.97
2023-05-16T09:33:12.188Z,98250.44
2023-05-16T09:33:23.860Z,98238.94
2023-05-16T09:33:35.576Z,98248.81
2023-05-16T09:33:47.559Z,98248.78
2023-05-16T09:34:00.278Z,98250.34
2023-05-16T09:34:12.831Z,98249.69
2023-05-16T09:34:24.465Z,98254.13
2023-05-16T09:34:39.037Z,98251.13
2023-05-16T09:34:51.616Z,98247.34
2023-05-16T09:35:03.541Z,98250.00
2023-05-16T09:35:19.396Z,98254.75
2023-05-16T09:35:43.937Z,98247.00
2023-05-16T09:35:58.228Z,98250.84
2023-05-16T09:36:10.396Z,98254.34
2023-05-16T09:36:22.037Z,98248.44
2023-05-16T09:36:33.819Z,98254.56
2023-05-16T09:36:46.781Z,98256.19
2023-05-16T09:36:59.707Z,98250.28
2023-05-16T09:37:11.758Z,98246.56
2023-05-16T09:37:25.705Z,98257.81
2023-05-16T09:37:37.362Z,98247.16
2023-05-16T09:37:50.019Z,98257.38
2023-05-16T09:38:02.572Z,98252.09
2023-05-16T09:38:15.474Z,98250.50
2023-05-16T09:38:27.896Z,98252.66
2023-05-16T09:38:39.523Z,98258.06
2023-05-16T09:38:52.267Z,98248.47
2023-05-16T09:39:03.931Z,98249.03
2023-05-16T09:39:15.759Z,98245.31
2023-05-16T09:39:27.723Z,98248.53
2023-05-16T09:39:42.866Z,98254.16
2023-05-16T09:39:54.948Z,98249.13
2023-05-16T09:40:08.618Z,98244.63
2023-05-16T09:40:20.918Z,98252.94
2023-05-16T09:40:32.570Z,98255.13
2023-05-16T09:40:44.931Z,98248.94
2023-05-16T09:40:57.776Z,98242.88
2023-05-16T09:41:10.149Z,98248.53
2023-05-16T09:41:22.174Z,98253.63
2023-05-16T09:41:34.145Z,98252.56
2023-05-16T09:41:45.915Z,98248.28
2023-05-16T09:41:59.153Z,98253.34
2023-05-16T09:42:11.499Z,98249.63
2023-05-16T09:42:26.350Z,98247.50
2023-05-16T09:42:38.117Z,98245.88
2023-05-16T09:43:04.621Z,98243.72
2023-05-16T09:43:17.604Z,98256.00
2023-05-16T09:43:29.793Z,98244.22
2023-05-16T09:43:43.624Z,98246.63
2023-05-16T09:43:55.615Z,98256.28
2023-05-16T09:44:07.380Z,98245.03
2023-05-16T09:44:19.161Z,98247.16
2023-05-16T09:44:31.682Z,98253.06
2023-05-16T09:44:46.782Z,98259.22
2023-05-16T09:44:59.393Z,98250.94
2023-05-16T09:45:12.916Z,98251.00
2023-05-16T09:45:24.685Z,98255.25
2023-05-16T09:45:36.930Z,98252.25
2023-05-16T09:45:49.122Z,98251.97
2023-05-16T09:46:02.716Z,98247.44
2023-05-16T09:46:15.073Z,98249.84
2023-05-16T09:46:28.644Z,98263.28
2023-05-16T09:46:41.127Z,98247.50
2023-05-16T09:46:54.444Z,98256.38
2023-05-16T09:47:06.386Z,98255.38
2023-05-16T09:47:19.705Z,98247.34
2023-05-16T09:47:31.312Z,98258.66
2023-05-16T09:47:46.560Z,98254.69
2023-05-16T09:48:02.451Z,98251.25
2023-05-16T09:48:14.983Z,98251.84
2023-05-16T09:48:28.566Z,98255.09
2023-05-16T09:48:42.296Z,98254.34
2023-05-16T09:48:55.333Z,98255.22
2023-05-16T09:49:07.010Z,98256.31
2023-05-16T09:49:19.022Z,98262.78
2023-05-16T09:49:30.914Z,98256.97
2023-05-16T09:49:43.755Z,98256.47
2023-05-16T09:49:56.606Z,98257.28
2023-05-16T09:50:08.972Z,98251.66
2023-05-16T09:50:20.689Z,98255.72
2023-05-16T09:50:33.471Z,98252.75
2023-05-16T09:50:51.095Z,98253.84
2023-05-16T09:51:06.832Z,98254.63
2023-05-16T09:51:22.316Z,98262.44
2023-05-16T09:51:34.499Z,98249.84
2023-05-16T09:51:46.412Z,98261.16
2023-05-16T09:52:01.126Z,98251.78
2023-05-16T09:52:14.451Z,98260.06
2023-05-16T09:52:26.996Z,98255.47
2023-05-16T09:52:38.629Z,98249.31
2023-05-16T09:52:51.059Z,98251.75
2023-05-16T09:53:03.013Z,98258.50
2023-05-16T09:53:14.622Z,98252.88
2023-05-16T09:53:28.558Z,98251.50
2023-05-16T09:53:41.578Z,98258.78
2023-05-16T09:53:53.229Z,98252.88
2023-05-16T09:54:07.991Z,98251.25
2023-05-16T09:54:29.968Z,98250.72
2023-05-16T09:54:42.579Z,98258.22
2023-05-16T09:54:54.804Z,98246.16
2023-05-16T09:55:07.457Z,98245.63
2023-05-16T09:55:19.263Z,98248.06
2023-05-16T09:55:31.340Z,98247.53
2023-05-16T09:55:43.334Z,98247.28
2023-05-16T09:56:03.421Z,98253.69
2023-05-16T09:56:15.833Z,98247.78
2023-05-16T09:56:27.485Z,98247.50
2023-05-16T09:56:49.118Z,98257.69
2023-05-16T09:57:02.853Z,98257.41
2023-05-16T09:57:19.257Z,98258.19
2023-05-16T09:57:30.978Z,98252.00
2023-05-16T09:57:42.614Z,98252.00
2023-05-16T09:57:55.353Z,98248.50
2023-05-16T09:58:06.965Z,98252.75
2023-05-16T09:58:18.843Z,98248.97
2023-05-16T09:58:31.293Z,98250.34
2023-05-16T09:58:46.051Z,98251.91
2023-05-16T09:59:00.274Z,98255.94
2023-05-16T09:59:11.992Z,98252.72
2023-05-16T09:59:23.947Z,98251.88
2023-05-16T09:59:36.498Z,98247.56
2023-05-16T09:59:48.323Z,98256.94
2023-05-16T10:00:02.004Z,98253.19
2023-05-16T10:00:14.885Z,98247.81
2023-05-16T10:00:30.022Z,98249.13
2023-05-16T10:00:41.736Z,98252.88
2023-05-16T10:00:53.594Z,98250.72
2023-05-16T10:01:07.335Z,98249.38
2023-05-16T10:01:19.435Z,98255.78
2023-05-16T10:01:31.255Z,98258.47
2023-05-16T10:01:43.807Z,98252.03
2023-05-16T10:01:57.775Z,98250.41
2023-05-16T10:02:11.506Z,98251.44
2023-05-16T10:02:23.455Z,98245.53
2023-05-16T10:02:35.701Z,98240.66
2023-05-16T10:02:49.844Z,98245.25
2023-05-16T10:03:04.879Z,98256.03
2023-05-16T10:03:18.086Z,98245.34
2023-05-16T10:03:31.539Z,98246.25
2023-05-16T10:03:43.711Z,98239.59
2023-05-16T10:03:55.686Z,98244.94
2023-05-16T10:04:10.482Z,98250.63
2023-05-16T10:04:24.846Z,98242.84
2023-05-16T10:04:36.810Z,98246.34
2023-05-16T10:04:49.458Z,98248.19
2023-05-16T10:05:01.196Z,98247.94
2023-05-16T10:05:12.779Z,98252.22
2023-05-16T10:05:24.981Z,98254.88
2023-05-16T10:05:36.831Z,98249.47
2023-05-16T10:05:48.471Z,98257.53
2023-05-16T10:06:01.257Z,98247.28
2023-05-16T10:06:13.665Z,98252.38
2023-05-16T10:06:26.014Z,98254.91
2023-05-16T10:06:40.304Z,98248.72
2023-05-16T10:06:52.318Z,98249.53
2023-05-16T10:07:04.920Z,98250.06
2023-05-16T10:07:17.668Z,98252.97
2023-05-16T10:07:32.784Z,98241.38
2023-05-16T10:07:44.572Z,98255.84
2023-05-16T10:07:57.193Z,98248.56
2023-05-16T10:08:09.658Z,98254.19
2023-05-16T10:08:21.994Z,98252.81
2023-05-16T10:08:36.740Z,98242.31
2023-05-16T10:08:48.802Z,98248.81
2023-05-16T10:09:03.062Z,98249.88
2023-05-16T10:09:16.313Z,98246.16
2023-05-16T10:09:28.869Z,98247.22
2023-05-16T10:09:41.849Z,98243.19
2023-05-16T10:09:54.757Z,98249.66
2023-05-16T10:10:08.248Z,98241.88
2023-05-16T10:10:20.507Z,98248.84
2023-05-16T10:10:35.698Z,98247.00
2023-05-16T10:10:51.504Z,98243.78
2023-05-16T10:11:04.026Z,98243.50
2023-05-16T10:11:16.894Z,98246.75
2023-05-16T10:11:28.633Z,98241.88
2023-05-16T10:11:42.560Z,98244.84
2023-05-16T10:11:55.975Z,98244.28
2023-05-16T10:12:09.425Z,98241.53
2023-05-16T10:12:27.533Z,98246.06
2023-05-16T10:12:39.662Z,98242.81
2023-05-16T10:12:51.746Z,98240.69
2023-05-16T10:13:05.827Z,98244.94
2023-05-16T10:13:21.518Z,98236.31
2023-05-16T10:13:34.737Z,98246.00
2023-05-16T10:13:50.457Z,98239.56
2023-05-16T10:14:03.067Z,98239.97
2023-05-16T10:14:17.984Z,98239.09
2023-05-16T10:14:30.667Z,98236.69
2023-05-16T10:14:42.433Z,98232.13
2023-05-16T10:14:54.134Z,98235.59
2023-05-16T10:15:07.621Z,98240.97
2023-05-16T10:15:19.951Z,98233.97
2023-05-16T10:15:34.298Z,98236.94
2023-05-16T10:15:46.701Z,98243.63
2023-05-16T10:16:00.458Z,98232.31
2023-05-16T10:16:12.786Z,98244.97
2023-05-16T10:16:26.754Z,98257.84
2023-05-16T10:16:40.741Z,98249.81
2023-05-16T10:16:53.136Z,98230.72
2023-05-16T10:17:07.073Z,98249.31
2023-05-16T10:17:19.033Z,98233.69
2023-05-16T10:17:32.751Z,98227.53
2023-05-16T10:17:52.569Z,98238.25
2023-05-16T10:18:04.931Z,98245.75
2023-05-16T10:18:18.209Z,98247.66
2023-05-16T10:18:30.905Z,98248.94
2023-05-16T10:18:42.848Z,98252.19
2023-05-16T10:18:56.241Z,98244.66
2023-05-16T10:19:07.935Z,98243.03
2023-05-16T10:19:21.857Z,98243.84
2023-05-16T10:19:36.241Z,98245.72
2023-05-16T10:19:48.624Z,98243.56
2023-05-16T10:20:01.999Z,98249.16
2023-05-16T10:20:14.784Z,98250.03
2023-05-16T10:20:26.924Z,98245.47
2023-05-16T10:20:40.046Z,98244.13
2023-05-16T10:20:53.825Z,98244.09
2023-05-16T10:21:10.477Z,98240.09
2023-05-16T10:21:25.734Z,98233.34
2023-05-16T10:21:38.990Z,98239.28
2023-05-16T10:21:54.642Z,98234.94
2023-05-16T10:22:07.245Z,98244.34
2023-05-16T10:22:20.104Z,98243.50
2023-05-16T10:22:33.295Z,98238.91
2023-05-16T10:22:46.341Z,98247.22
2023-05-16T10:22:58.477Z,98249.06
2023-05-16T10:23:12.865Z,98244.50
2023-05-16T10:23:26.324Z,98242.81
2023-05-16T10:23:39.272Z,98236.31
2023-05-16T10:23:51.824Z,98235.50
2023-05-16T10:24:05.657Z,98240.56
2023-05-16T10:24:18.494Z,98239.16
2023-05-16T10:24:34.395Z,98241.28
2023-05-16T10:24:49.023Z,98244.22
2023-05-16T10:25:06.200Z,98250.63
2023-05-16T10:25:20.719Z,98250.00
2023-05-16T10:25:36.015Z,98240.78
2023-05-16T10:25:49.115Z,98241.56
2023-05-16T10:26:03.447Z,98241.22
2023-05-16T10:26:17.477Z,98242.88
2023-05-16T10:26:29.832Z,98238.38
2023-05-16T10:26:42.588Z,98252.06
2023-05-16T10:26:54.332Z,98245.63
2023-05-16T10:27:06.253Z,98242.31
2023-05-16T10:27:19.414Z,98250.88
2023-05-16T10:27:31.389Z,98251.06
2023-05-16T10:27:43.150Z,98248.19
2023-05-16T10:27:55.999Z,98242.78
2023-05-16T10:28:08.650Z,98257.69
2023-05-16T10:28:20.756Z,98245.06
2023-05-16T10:28:33.076Z,98242.69
2023-05-16T10:28:46.586Z,98255.34
2023-05-16T10:28:58.702Z,98245.41
2023-05-16T10:29:10.557Z,98249.38
2023-05-16T10:29:22.834Z,98255.03
2023-05-16T10:29:46.503Z,98258.25
2023-05-16T10:30:09.985Z,98250.59
2023-05-16T10:30:22.372Z,98247.91
2023-05-16T10:30:34.299Z,98242.00
2023-05-16T10:30:46.893Z,98236.03
2023-05-16T10:30:59.466Z,98240.06
2023-05-16T10:31:13.511Z,98252.69
2023-05-16T10:31:25.686Z,98249.97
2023-05-16T10:31:37.650Z,98251.31
2023-05-16T10:31:49.464Z,98252.16
2023-05-16T10:32:01.615Z,98257.56
2023-05-16T10:32:13.838Z,98248.16
2023-05-16T10:32:27.373Z,98248.00
2023-05-16T10:32:42.536Z,98242.94
2023-05-16T10:32:57.255Z,98244.00
2023-05-16T10:33:09.205Z,98248.06
2023-05-16T10:33:21.037Z,98243.03
2023-05-16T10:33:33.676Z,98249.56
2023-05-16T10:33:46.032Z,98250.09
2023-05-16T10:33:57.785Z,98248.75
2023-05-16T10:34:10.202Z,98245.88
2023-05-16T10:34:22.313Z,98246.75
2023-05-16T10:34:34.297Z,98248.31
2023-05-16T10:34:47.505Z,98242.41
2023-05-16T10:35:01.163Z,98238.59
2023-05-16T10:35:12.881Z,98247.19
2023-05-16T10:35:24.842Z,98246.59
2023-05-16T10:35:38.916Z,98247.09
2023-05-16T10:35:52.398Z,98247.00
2023-05-16T10:36:05.531Z,98245.88
2023-05-16T10:36:18.368Z,98246.91
2023-05-16T10:36:31.264Z,98244.75
2023-05-16T10:36:43.612Z,98251.13
2023-05-16T10:36:55.327Z,98239.75
2023-05-16T10:37:08.397Z,98241.84
2023-05-16T10:37:20.120Z,98239.88
2023-05-16T10:37:32.177Z,98242.78
2023-05-16T10:37:44.417Z,98242.97
2023-05-16T10:37:57.291Z,98245.34
2023-05-16T10:38:12.032Z,98246.97
2023-05-16T10:38:24.977Z,98247.03
2023-05-16T10:38:37.972Z,98236.25
2023-05-16T10:38:49.968Z,98245.13
2023-05-16T10:39:02.424Z,98240.97
2023-05-16T10:39:15.256Z,98239.88
2023-05-16T10:39:27.952Z,98239.75
2023-05-16T10:39:39.852Z,98243.22
2023-05-16T10:39:53.080Z,98235.28
2023-05-16T10:40:07.901Z,98237.38
2023-05-16T10:40:19.981Z,98236.22
2023-05-16T10:40:32.033Z,98234.84
2023-05-16T10:40:44.057Z,98241.28
2023-05-16T10:40:56.141Z,98233.41
2023-05-16T10:41:09.695Z,98240.41
2023-05-16T10:41:22.053Z,98236.09
2023-05-16T10:41:34.145Z,98227.06
2023-05-16T10:41:46.376Z,98227.16
2023-05-16T10:41:58.196Z,98226.66
2023-05-16T10:42:09.938Z,98227.66
2023-05-16T10:42:23.130Z,98222.22
2023-05-16T10:42:35.028Z,98231.84
2023-05-16T10:42:56.447Z,98230.94
2023-05-16T10:43:09.116Z,98228.19
2023-05-16T10:43:24.829Z,98229.56
2023-05-16T10:43:37.492Z,98233.59
2023-05-16T10:43:56.544Z,98226.78
2023-05-16T10:44:13.803Z,98233.00
2023-05-16T10:44:25.955Z,98228.41
2023-05-16T10:44:39.416Z,98226.72
2023-05-16T10:45:04.965Z,98219.66
2023-05-16T10:45:18.241Z,98227.13
2023-05-16T10:45:30.401Z,98234.31
2023-05-16T10:45:42.507Z,98229.16
2023-05-16T10:45:55.733Z,98231.00
2023-05-16T10:46:09.664Z,98236.28
2023-05-16T10:46:24.347Z,98234.88
2023-05-16T10:46:38.528Z,98236.78
2023-05-16T10:46:50.372Z,98231.19
2023-05-16T10:47:04.485Z,98237.72
2023-05-16T10:47:19.248Z,98235.00
2023-05-16T10:47:31.897Z,98231.03
2023-05-16T10:47:51.650Z,98237.56
2023-05-16T10:48:06.495Z,98234.97
2023-05-16T10:48:29.141Z,98230.88
2023-05-16T10:48:43.956Z,98238.63
2023-05-16T10:48:59.091Z,98232.06
2023-05-16T10:49:20.923Z,98241.34
2023-05-16T10:49:32.576Z,98231.81
2023-05-16T10:49:44.188Z,98229.00
2023-05-16T10:49:56.758Z,98228.97
2023-05-16T10:50:08.997Z,98230.19
2023-05-16T10:50:34.381Z,98228.75
2023-05-16T10:50:46.608Z,98228.38
2023-05-16T10:50:59.448Z,98227.81
2023-05-16T10:51:36.431Z,98227.06
2023-05-16T10:52:02.211Z,98235.00
2023-05-16T10:52:15.708Z,98225.94
2023-05-16T10:52:34.694Z,98216.41
2023-05-16T10:52:46.354Z,98222.03
2023-05-16T10:53:12.345Z,98222.22
2023-05-16T10:53:32.957Z,98220.72
2023-05-16T10:53:44.644Z,98222.63
2023-05-16T10:54:06.204Z,98218.72
2023-05-16T10:54:19.529Z,98219.25
2023-05-16T10:54:38.276Z,98222.47
2023-05-16T10:54:52.351Z,98219.34
2023-05-16T10:55:04.821Z,98229.78
2023-05-16T10:55:18.053Z,98225.06
2023-05-16T10:55:30.529Z,98228.28
2023-05-16T10:55:46.225Z,98223.09
2023-05-16T10:56:10.378Z,98227.09
2023-05-16T10:56:23.288Z,98227.22
2023-05-16T10:56:35.127Z,98229.31
2023-05-16T10:56:56.228Z,98223.03
2023-05-16T10:57:11.720Z,98225.16
2023-05-16T10:57:23.995Z,98223.16
2023-05-16T10:57:36.731Z,98222.81
2023-05-16T10:57:48.448Z,98220.59
2023-05-16T10:58:03.282Z,98226.66
2023-05-16T10:58:19.204Z,98219.34
2023-05-16T10:58:41.192Z,98221.53
2023-05-16T10:58:55.346Z,98222.03
2023-05-16T10:59:23.076Z,98219.63
2023-05-16T10:59:42.369Z,98222.97
2023-05-16T10:59:58.402Z,98223.47
2023-05-16T11:00:22.142Z,98218.63
2023-05-16T11:00:33.886Z,98217.56
2023-05-16T11:00:45.494Z,98220.47
2023-05-16T11:01:15.683Z,98220.41
2023-05-16T11:01:30.190Z,98217.09
2023-05-16T11:01:42.006Z,98212.50
2023-05-16T11:01:55.186Z,98211.91
2023-05-16T11:02:21.997Z,98223.91
2023-05-16T11:02:43.149Z,98234.44
2023-05-16T11:03:06.571Z,98227.63
2023-05-16T11:03:25.419Z,98234.19
2023-05-16T11:03:37.375Z,98223.16
2023-05-16T11:04:11.076Z,98229.44
2023-05-16T11:04:22.761Z,98228.38
2023-05-16T11:04:46.001Z,98232.59
2023-05-16T11:04:59.464Z,98231.22
2023-05-16T11:05:15.172Z,98239.63
2023-05-16T11:05:27.696Z,98232.03
2023-05-16T11:05:39.528Z,98232.84
2023-05-16T11:05:53.975Z,98241.22
2023-05-16T11:06:06.162Z,98233.25
2023-05-16T11:06:23.521Z,98234.06
2023-05-16T11:06:45.834Z,98238.03
2023-05-16T11:06:58.397Z,98235.91
2023-05-16T11:07:11.316Z,98238.66
2023-05-16T11:07:24.183Z,98239.22
2023-05-16T11:07:38.513Z,98236.59
2023-05-16T11:08:04.425Z,98228.50
2023-05-16T11:08:16.222Z,98231.00
2023-05-16T11:08:27.907Z,98236.66
2023-05-16T11:08:58.500Z,98235.44
2023-05-16T11:09:22.124Z,98235.47
2023-05-16T11:09:33.848Z,98230.31
2023-05-16T11:09:45.777Z,98228.66
2023-05-16T11:10:08.083Z,98227.69
2023-05-16T11:10:21.622Z,98229.00
2023-05-16T11:10:33.517Z,98231.97
2023-05-16T11:10:45.556Z,98235.91
2023-05-16T11:11:26.958Z,98233.78
2023-05-16T11:11:44.330Z,98244.28
2023-05-16T11:12:02.851Z,98230.91
2023-05-16T11:12:16.103Z,98240.59
2023-05-16T11:12:37.133Z,98232.72
2023-05-16T11:12:49.627Z,98236.94
2023-05-16T11:13:03.927Z,98234.72
2023-05-16T11:13:19.583Z,98231.16
2023-05-16T11:13:34.169Z,98230.47
2023-05-16T11:13:57.502Z,98227.25
2023-05-16T11:14:09.330Z,98228.00
2023-05-16T11:14:22.161Z,98224.41
2023-05-16T11:14:39.236Z,98222.41
2023-05-16T11:14:52.912Z,98225.34
2023-05-16T11:15:18.891Z,98227.03
2023-05-16T11:15:32.441Z,98226.22
2023-05-16T11:15:44.305Z,98225.66
2023-05-16T11:16:28.423Z,98236.38
2023-05-16T11:16:40.226Z,98236.06
2023-05-16T11:16:53.606Z,98236.06
2023-05-16T11:17:08.547Z,98235.66
2023-05-16T11:17:22.860Z,98240.25
2023-05-16T11:17:44.053Z,98242.22
2023-05-16T11:18:09.762Z,98233.66
2023-05-16T11:18:26.087Z,98235.53
2023-05-16T11:18:50.258Z,98240.69
2023-05-16T11:19:05.102Z,98231.59
2023-05-16T11:19:29.358Z,98238.88
2023-05-16T11:19:43.397Z,98241.56
2023-05-16T11:19:59.561Z,98241.00
2023-05-16T11:20:25.755Z,98235.16
2023-05-16T11:20:39.370Z,98236.78
2023-05-16T11:20:52.891Z,98238.97
2023-05-16T11:21:04.899Z,98242.47
2023-05-16T11:21:16.739Z,98243.31
2023-05-16T11:22:02.937Z,98240.25
2023-05-16T11:22:23.255Z,98233.28
2023-05-16T11:22:41.146Z,98241.31
2023-05-16T11:23:19.728Z,98241.03
2023-05-16T11:23:31.485Z,98241.47
2023-05-16T11:23:44.149Z,98241.13
2023-05-16T11:24:28.936Z,98235.34
2023-05-16T11:24:49.518Z,98239.31
2023-05-16T11:25:04.158Z,98239.44
2023-05-16T11:25:15.856Z,98238.41
2023-05-16T11:25:36.064Z,98242.13
2023-05-16T11:25:50.627Z,98235.56
2023-05-16T11:26:03.425Z,98241.13
2023-05-16T11:26:16.012Z,98242.97
2023-05-16T11:26:27.648Z,98241.03
2023-05-16T11:26:39.287Z,98243.38
2023-05-16T11:26:50.931Z,98237.63
2023-05-16T11:27:03.811Z,98244.53
2023-05-16T11:27:21.297Z,98245.81
2023-05-16T11:27:35.341Z,98245.91
2023-05-16T11:27:47.970Z,98241.34
2023-05-16T11:27:59.785Z,98244.84
2023-05-16T11:28:13.370Z,98248.56
2023-05-16T11:28:26.019Z,98240.00
2023-05-16T11:28:37.681Z,98246.00
2023-05-16T11:28:49.647Z,98240.16
2023-05-16T11:29:03.956Z,98237.34
2023-05-16T11:29:15.661Z,98238.56
2023-05-16T11:29:28.781Z,98226.59
2023-05-16T11:29:40.361Z,98229.56
2023-05-16T11:29:52.555Z,98232.44
2023-05-16T11:30:13.876Z,98230.13
2023-05-16T11:30:25.472Z,98235.50
2023-05-16T11:30:37.105Z,98234.69
2023-05-16T11:30:51.103Z,98228.50
2023-05-16T11:31:05.256Z,98228.16
2023-05-16T11:31:18.257Z,98233.75
2023-05-16T11:31:30.282Z,98230.72
2023-05-16T11:31:42.996Z,98232.03
2023-05-16T11:31:54.966Z,98230.38
2023-05-16T11:32:06.965Z,98234.16
2023-05-16T11:32:22.761Z,98226.13
2023-05-16T11:32:35.906Z,98227.09
2023-05-16T11:32:50.660Z,98239.22
2023-05-16T11:33:02.702Z,98230.47
2023-05-16T11:33:16.397Z,98229.47
2023-05-16T11:33:31.847Z,98237.75
2023-05-16T11:33:44.983Z,98238.06
2023-05-16T11:33:58.409Z,98234.34
2023-05-16T11:34:10.035Z,98237.25
2023-05-16T11:34:21.838Z,98232.88
2023-05-16T11:34:37.678Z,98241.94
2023-05-16T11:34:50.904Z,98238.63
2023-05-16T11:35:03.634Z,98241.69
2023-05-16T11:35:16.831Z,98239.97
2023-05-16T11:35:29.253Z,98239.53
2023-05-16T11:35:41.280Z,98230.81
2023-05-16T11:36:25.518Z,98241.66
2023-05-16T11:36:38.636Z,98246.66
2023-05-16T11:36:50.357Z,98239.31
2023-05-16T11:37:02.641Z,98241.78
2023-05-16T11:37:15.077Z,98234.84
2023-05-16T11:37:27.757Z,98240.69
2023-05-16T11:37:39.720Z,98237.38
2023-05-16T11:37:52.042Z,98234.09
2023-05-16T11:38:03.731Z,98238.94
2023-05-16T11:38:16.843Z,98238.31
2023-05-16T11:38:30.415Z,98231.72
2023-05-16T11:38:43.779Z,98234.94
2023-05-16T11:39:06.320Z,98234.84
2023-05-16T11:39:19.324Z,98233.66
2023-05-16T11:39:32.259Z,98233.94
2023-05-16T11:39:44.060Z,98232.34
2023-05-16T11:40:00.444Z,98231.72
2023-05-16T11:40:13.629Z,98237.06
2023-05-16T11:40:27.066Z,98242.38
2023-05-16T11:40:42.608Z,98240.13
2023-05-16T11:40:54.335Z,98233.03
2023-05-16T11:41:07.968Z,98243.72
2023-05-16T11:41:21.138Z,98244.25
2023-05-16T11:41:32.880Z,98236.47
2023-05-16T11:41:44.539Z,98231.53
2023-05-16T11:41:56.181Z,98244.84
2023-05-16T11:42:07.931Z,98241.53
2023-05-16T11:42:20.688Z,98233.34
2023-05-16T11:42:35.353Z,98239.75
2023-05-16T11:42:47.840Z,98237.56
2023-05-16T11:43:01.027Z,98237.19
2023-05-16T11:43:18.327Z,98231.06
2023-05-16T11:43:30.420Z,98234.44
2023-05-16T11:43:44.787Z,98231.59
2023-05-16T11:44:12.657Z,98232.47
2023-05-16T11:44:24.360Z,98234.28
2023-05-16T11:44:36.070Z,98229.88
2023-05-16T11:44:47.721Z,98230.59
2023-05-16T11:45:05.375Z,98230.81
2023-05-16T11:45:19.912Z,98231.53
2023-05-16T11:45:31.611Z,98224.13
2023-05-16T11:45:43.819Z,98227.63
2023-05-16T11:45:56.059Z,98229.16
2023-05-16T11:46:07.892Z,98225.31
2023-05-16T11:46:19.591Z,98234.63
2023-05-16T11:46:32.458Z,98224.63
2023-05-16T11:46:44.321Z,98220.44
2023-05-16T11:46:56.582Z,98219.53
2023-05-16T11:47:08.781Z,98218.03
2023-05-16T11:47:20.518Z,98219.53
2023-05-16T11:47:32.375Z,98226.47
2023-05-16T11:47:47.915Z,98218.47
2023-05-16T11:48:02.426Z,98224.47
2023-05-16T11:48:24.855Z,98225.94
2023-05-16T11:48:40.813Z,98231.78
2023-05-16T11:48:53.495Z,98232.47
2023-05-16T11:49:07.250Z,98231.28
2023-05-16T11:49:18.989Z,98231.78
2023-05-16T11:49:31.185Z,98227.44
2023-05-16T11:49:43.271Z,98230.56
2023-05-16T11:49:57.833Z,98223.34
2023-05-16T11:50:14.227Z,98224.47
2023-05-16T11:50:26.192Z,98230.78
2023-05-16T11:50:38.121Z,98229.56
2023-05-16T11:50:50.115Z,98225.75
2023-05-16T11:51:01.897Z,98219.22
2023-05-16T11:51:18.737Z,98226.84
2023-05-16T11:51:31.004Z,98230.06
2023-05-16T11:51:43.389Z,98224.41
2023-05-16T11:51:57.490Z,98222.53
2023-05-16T11:52:10.645Z,98229.16
2023-05-16T11:52:23.311Z,98233.84
2023-05-16T11:52:35.198Z,98223.47
2023-05-16T11:52:48.125Z,98225.53
2023-05-16T11:52:59.996Z,98229.47
2023-05-16T11:53:14.251Z,98225.75
2023-05-16T11:53:26.116Z,98229.94
2023-05-16T11:53:38.303Z,98237.38
2023-05-16T11:53:52.280Z,98229.97
2023-05-16T11:54:04.999Z,98235.47
2023-05-16T11:54:18.084Z,98231.06
2023-05-16T11:54:29.891Z,98235.75
2023-05-16T11:54:42.413Z,98226.63
2023-05-16T11:54:55.016Z,98229.75
2023-05-16T11:55:08.191Z,98231.56
2023-05-16T11:55:36.899Z,98233.31
2023-05-16T11:55:55.741Z,98230.06
2023-05-16T11:56:08.906Z,98221.75
2023-05-16T11:56:22.220Z,98229.25
2023-05-16T11:56:36.422Z,98239.16
2023-05-16T11:56:48.679Z,98239.34
2023-05-16T11:57:00.587Z,98243.72
2023-05-16T11:57:12.418Z,98235.03
2023-05-16T11:57:24.175Z,98238.25
2023-05-16T11:57:36.137Z,98235.72
2023-05-16T11:57:48.899Z,98227.56
2023-05-16T11:58:00.946Z,98235.34
2023-05-16T11:58:12.840Z,98234.19
2023-05-16T11:58:24.631Z,98224.34
2023-05-16T11:58:36.934Z,98229.13
2023-05-16T11:58:50.558Z,98228.78
2023-05-16T11:59:02.463Z,98231.56
2023-05-16T11:59:15.719Z,98234.28
2023-05-16T11:59:27.669Z,98235.44
2023-05-16T11:59:41.541Z,98236.75
2023-05-16T11:59:53.381Z,98235.94
2023-05-16T12:00:08.034Z,98227.84
2023-05-16T12:00:21.829Z,98234.59
2023-05-16T12:00:34.682Z,98227.06
2023-05-16T12:00:50.039Z,98227.56
2023-05-16T12:01:05.346Z,98238.88
2023-05-16T12:01:17.164Z,98238.59
2023-05-16T12:01:32.506Z,98230.56
2023-05-16T12:01:44.212Z,98227.72
2023-05-16T12:01:55.949Z,98242.41
2023-05-16T12:02:09.817Z,98234.38
2023-05-16T12:02:21.989Z,98246.25
2023-05-16T12:02:34.364Z,98237.31
2023-05-16T12:02:50.228Z,98239.50
2023-05-16T12:03:04.572Z,98237.72
2023-05-16T12:03:19.104Z,98243.53
2023-05-16T12:03:33.594Z,98242.75
2023-05-16T12:03:45.683Z,98241.88
2023-05-16T12:03:58.255Z,98252.34
2023-05-16T12:04:12.506Z,98236.97
2023-05-16T12:04:24.687Z,98234.47
2023-05-16T12:04:38.288Z,98233.94
2023-05-16T12:04:50.689Z,98240.44
2023-05-16T12:05:10.043Z,98240.31
2023-05-16T12:05:25.488Z,98237.56
2023-05-16T12:05:37.620Z,98245.06
2023-05-16T12:05:53.531Z,98234.16
2023-05-16T12:06:05.495Z,98249.72
2023-05-16T12:06:17.339Z,98249.88
2023-05-16T12:06:31.306Z,98245.81
2023-05-16T12:06:44.537Z,98244.94
2023-05-16T12:07:02.528Z,98241.06
2023-05-16T12:07:15.029Z,98239.78
2023-05-16T12:07:28.484Z,98235.16
2023-05-16T12:07:41.850Z,98240.97
2023-05-16T12:07:54.375Z,98245.75
2023-05-16T12:08:07.133Z,98237.00
2023-05-16T12:08:19.037Z,98246.06
2023-05-16T12:08:31.157Z,98241.91
2023-05-16T12:08:51.100Z,98243.09
2023-05-16T12:09:07.473Z,98239.78
2023-05-16T12:09:19.206Z,98240.72
2023-05-16T12:09:32.058Z,98242.81
2023-05-16T12:09:53.546Z,98240.63
2023-05-16T12:10:07.218Z,98248.66
2023-05-16T12:10:18.920Z,98242.09
2023-05-16T12:10:31.895Z,98240.94
2023-05-16T12:10:46.229Z,98241.16
2023-05-16T12:10:59.085Z,98244.88
2023-05-16T12:11:10.866Z,98242.69
2023-05-16T12:11:23.779Z,98240.50
2023-05-16T12:11:35.657Z,98241.22
2023-05-16T12:11:47.316Z,98246.56
2023-05-16T12:12:00.171Z,98245.38
2023-05-16T12:12:11.926Z,98243.72
2023-05-16T12:12:23.791Z,98243.63
2023-05-16T12:12:36.016Z,98238.13
2023-05-16T12:12:48.605Z,98244.28
2023-05-16T12:13:00.322Z,98250.13
2023-05-16T12:13:13.045Z,98251.91
2023-05-16T12:13:25.484Z,98248.13
2023-05-16T12:13:37.201Z,98250.81
2023-05-16T12:13:49.232Z,98241.66
2023-05-16T12:14:01.163Z,98247.84
2023-05-16T12:14:16.047Z,98249.25
2023-05-16T12:14:27.942Z,98253.97
2023-05-16T12:14:39.706Z,98246.09
2023-05-16T12:14:51.554Z,98243.59